sensor_id;sensor_type;location;lat;lon;timestamp;temperature;humidity
38973;DHT22;25333;50.762;4.470;2022-12-18T00:01:36;-5.30;99.90
38973;DHT22;25333;50.762;4.470;2022-12-18T00:04:04;-5.30;99.90
38973;DHT22;25333;50.762;4.470;2022-12-18T00:06:29;-5.40;99.90
38973;DHT22;25333;50.762;4.470;2022-12-18T00:08:57;-5.40;99.90
38973;DHT22;25333;50.762;4.470;2022-12-18T00:11:25;-5.50;99.90
38973;DHT22;25333;50.762;4.470;2022-12-18T00:13:51;-5.60;99.90
38973;DHT22;25333;50.762;4.470;2022-12-18T00:16:20;-5.60;99.90
38973;DHT22;25333;50.762;4.470;2022-12-18T00:18:48;-5.50;99.90
38973;DHT22;25333;50.762;4.470;2022-12-18T00:21:14;-5.50;99.90
38973;DHT22;25333;50.762;4.470;2022-12-18T00:23:42;-5.60;99.90
38973;DHT22;25333;50.762;4.470;2022-12-18T00:26:11;-5.70;99.90
38973;DHT22;25333;50.762;4.470;2022-12-18T00:28:38;-5.70;99.90
38973;DHT22;25333;50.762;4.470;2022-12-18T00:31:09;-5.70;99.90
38973;DHT22;25333;50.762;4.470;2022-12-18T00:33:35;-5.60;99.90
38973;DHT22;25333;50.762;4.470;2022-12-18T00:36:06;-5.60;99.90
38973;DHT22;25333;50.762;4.470;2022-12-18T00:38:33;-5.60;99.90
38973;DHT22;25333;50.762;4.470;2022-12-18T00:40:59;-5.60;99.90
38973;DHT22;25333;50.762;4.470;2022-12-18T00:43:26;-5.60;99.90
38973;DHT22;25333;50.762;4.470;2022-12-18T00:45:52;-5.80;99.90
38973;DHT22;25333;50.762;4.470;2022-12-18T00:48:17;-5.90;99.90
38973;DHT22;25333;50.762;4.470;2022-12-18T00:50:43;-5.80;99.90
38973;DHT22;25333;50.762;4.470;2022-12-18T00:53:10;-5.90;99.90
38973;DHT22;25333;50.762;4.470;2022-12-18T00:55:38;-5.90;99.90
38973;DHT22;25333;50.762;4.470;2022-12-18T00:58:04;-5.90;99.90
38973;DHT22;25333;50.762;4.470;2022-12-18T01:00:30;-6.00;99.90
38973;DHT22;25333;50.762;4.470;2022-12-18T01:02:55;-6.10;99.90
38973;DHT22;25333;50.762;4.470;2022-12-18T01:05:21;-6.10;99.90
38973;DHT22;25333;50.762;4.470;2022-12-18T01:07:47;-6.00;99.90
38973;DHT22;25333;50.762;4.470;2022-12-18T01:10:13;-5.90;99.90
38973;DHT22;25333;50.762;4.470;2022-12-18T01:12:39;-5.90;99.90
38973;DHT22;25333;50.762;4.470;2022-12-18T01:15:06;-6.00;99.90
38973;DHT22;25333;50.762;4.470;2022-12-18T01:17:33;-6.00;99.90
38973;DHT22;25333;50.762;4.470;2022-12-18T01:19:58;-6.00;99.90
38973;DHT22;25333;50.762;4.470;2022-12-18T01:22:24;-6.20;99.90
38973;DHT22;25333;50.762;4.470;2022-12-18T01:24:50;-6.40;99.90
38973;DHT22;25333;50.762;4.470;2022-12-18T01:27:15;-6.40;99.90
38973;DHT22;25333;50.762;4.470;2022-12-18T01:29:41;-6.30;99.90
38973;DHT22;25333;50.762;4.470;2022-12-18T01:32:07;-6.30;99.90
38973;DHT22;25333;50.762;4.470;2022-12-18T01:34:35;-6.30;99.90
38973;DHT22;25333;50.762;4.470;2022-12-18T01:37:02;-6.30;99.90
38973;DHT22;25333;50.762;4.470;2022-12-18T01:39:28;-6.20;99.90
38973;DHT22;25333;50.762;4.470;2022-12-18T01:41:54;-6.30;99.90
38973;DHT22;25333;50.762;4.470;2022-12-18T01:50:24;-6.50;99.90
38973;DHT22;25333;50.762;4.470;2022-12-18T01:52:56;-6.60;99.90
38973;DHT22;25333;50.762;4.470;2022-12-18T01:55:25;-6.50;99.90
38973;DHT22;25333;50.762;4.470;2022-12-18T01:57:54;-6.60;99.90
38973;DHT22;25333;50.762;4.470;2022-12-18T02:00:21;-6.50;99.90
38973;DHT22;25333;50.762;4.470;2022-12-18T02:02:48;-6.60;99.90
38973;DHT22;25333;50.762;4.470;2022-12-18T02:05:22;-6.50;99.90
38973;DHT22;25333;50.762;4.470;2022-12-18T02:08:14;-6.50;99.90
38973;DHT22;25333;50.762;4.470;2022-12-18T02:10:52;-6.40;99.90
38973;DHT22;25333;50.762;4.470;2022-12-18T02:22:49;-6.60;99.90
38973;DHT22;25333;50.762;4.470;2022-12-18T02:28:23;-6.80;99.90
38973;DHT22;25333;50.762;4.470;2022-12-18T02:30:51;-6.90;99.90
38973;DHT22;25333;50.762;4.470;2022-12-18T02:33:19;-6.80;99.90
38973;DHT22;25333;50.762;4.470;2022-12-18T02:35:46;-6.70;99.90
38973;DHT22;25333;50.762;4.470;2022-12-18T02:38:14;-6.70;99.90
38973;DHT22;25333;50.762;4.470;2022-12-18T02:40:40;-6.70;99.90
38973;DHT22;25333;50.762;4.470;2022-12-18T02:43:11;-6.80;99.90
38973;DHT22;25333;50.762;4.470;2022-12-18T02:45:58;-6.80;99.90
38973;DHT22;25333;50.762;4.470;2022-12-18T02:48:35;-6.80;99.90
38973;DHT22;25333;50.762;4.470;2022-12-18T02:53:48;-6.80;99.90
38973;DHT22;25333;50.762;4.470;2022-12-18T02:56:23;-6.80;99.90
38973;DHT22;25333;50.762;4.470;2022-12-18T02:59:23;-6.80;99.90
38973;DHT22;25333;50.762;4.470;2022-12-18T03:04:36;-6.90;99.90
38973;DHT22;25333;50.762;4.470;2022-12-18T03:07:09;-6.90;99.90
38973;DHT22;25333;50.762;4.470;2022-12-18T03:09:38;-6.90;99.90
38973;DHT22;25333;50.762;4.470;2022-12-18T03:12:20;-7.00;99.90
38973;DHT22;25333;50.762;4.470;2022-12-18T03:15:14;-7.00;99.90
38973;DHT22;25333;50.762;4.470;2022-12-18T03:17:46;-6.90;99.90
38973;DHT22;25333;50.762;4.470;2022-12-18T03:20:18;-6.90;99.90
38973;DHT22;25333;50.762;4.470;2022-12-18T03:22:47;-6.90;99.90
38973;DHT22;25333;50.762;4.470;2022-12-18T03:25:16;-6.90;99.90
38973;DHT22;25333;50.762;4.470;2022-12-18T03:27:49;-6.90;99.90
38973;DHT22;25333;50.762;4.470;2022-12-18T03:30:17;-6.90;99.90
38973;DHT22;25333;50.762;4.470;2022-12-18T03:32:48;-6.90;99.90
38973;DHT22;25333;50.762;4.470;2022-12-18T03:35:20;-7.00;99.90
38973;DHT22;25333;50.762;4.470;2022-12-18T03:37:46;-7.10;99.90
38973;DHT22;25333;50.762;4.470;2022-12-18T03:40:12;-7.10;99.90
38973;DHT22;25333;50.762;4.470;2022-12-18T03:50:22;-7.20;99.90
38973;DHT22;25333;50.762;4.470;2022-12-18T03:55:39;-7.10;99.90
38973;DHT22;25333;50.762;4.470;2022-12-18T03:58:07;-7.10;99.90
38973;DHT22;25333;50.762;4.470;2022-12-18T04:00:33;-7.10;99.90
38973;DHT22;25333;50.762;4.470;2022-12-18T04:03:00;-7.10;99.90
38973;DHT22;25333;50.762;4.470;2022-12-18T04:05:28;-7.00;99.90
38973;DHT22;25333;50.762;4.470;2022-12-18T04:07:55;-7.10;99.90
38973;DHT22;25333;50.762;4.470;2022-12-18T04:10:21;-7.10;99.90
38973;DHT22;25333;50.762;4.470;2022-12-18T04:12:47;-7.30;99.90
38973;DHT22;25333;50.762;4.470;2022-12-18T04:15:14;-7.50;99.90
38973;DHT22;25333;50.762;4.470;2022-12-18T04:17:48;-7.40;99.90
38973;DHT22;25333;50.762;4.470;2022-12-18T04:20:14;-7.40;99.90
38973;DHT22;25333;50.762;4.470;2022-12-18T04:22:40;-7.30;99.90
38973;DHT22;25333;50.762;4.470;2022-12-18T04:25:06;-7.30;99.90
38973;DHT22;25333;50.762;4.470;2022-12-18T04:27:32;-7.30;99.90
38973;DHT22;25333;50.762;4.470;2022-12-18T04:29:57;-7.40;99.90
38973;DHT22;25333;50.762;4.470;2022-12-18T04:32:23;-7.50;99.90
38973;DHT22;25333;50.762;4.470;2022-12-18T04:34:48;-7.40;99.90
38973;DHT22;25333;50.762;4.470;2022-12-18T04:37:14;-7.40;99.90
38973;DHT22;25333;50.762;4.470;2022-12-18T04:39:40;-7.40;99.90
38973;DHT22;25333;50.762;4.470;2022-12-18T04:42:05;-7.40;99.90
38973;DHT22;25333;50.762;4.470;2022-12-18T04:44:31;-7.40;99.90
38973;DHT22;25333;50.762;4.470;2022-12-18T04:46:56;-7.40;99.90
38973;DHT22;25333;50.762;4.470;2022-12-18T04:49:22;-7.40;99.90
38973;DHT22;25333;50.762;4.470;2022-12-18T04:51:48;-7.50;99.90
38973;DHT22;25333;50.762;4.470;2022-12-18T04:54:13;-7.50;99.90
38973;DHT22;25333;50.762;4.470;2022-12-18T04:56:39;-7.40;99.90
38973;DHT22;25333;50.762;4.470;2022-12-18T04:59:05;-7.40;99.90
38973;DHT22;25333;50.762;4.470;2022-12-18T05:01:33;-7.40;99.90
38973;DHT22;25333;50.762;4.470;2022-12-18T05:03:59;-7.50;99.90
38973;DHT22;25333;50.762;4.470;2022-12-18T05:06:25;-7.50;99.90
38973;DHT22;25333;50.762;4.470;2022-12-18T05:08:50;-7.50;99.90
38973;DHT22;25333;50.762;4.470;2022-12-18T05:11:18;-7.50;99.90
38973;DHT22;25333;50.762;4.470;2022-12-18T05:13:44;-7.50;99.90
38973;DHT22;25333;50.762;4.470;2022-12-18T05:16:11;-7.40;99.90
38973;DHT22;25333;50.762;4.470;2022-12-18T05:18:37;-7.40;99.90
38973;DHT22;25333;50.762;4.470;2022-12-18T05:21:03;-7.50;99.90
38973;DHT22;25333;50.762;4.470;2022-12-18T05:23:29;-7.60;99.90
38973;DHT22;25333;50.762;4.470;2022-12-18T05:26:00;-7.40;99.90
38973;DHT22;25333;50.762;4.470;2022-12-18T05:28:28;-7.40;99.90
38973;DHT22;25333;50.762;4.470;2022-12-18T05:30:58;-7.30;99.90
38973;DHT22;25333;50.762;4.470;2022-12-18T05:33:26;-7.30;99.90
38973;DHT22;25333;50.762;4.470;2022-12-18T05:35:53;-7.40;99.90
38973;DHT22;25333;50.762;4.470;2022-12-18T05:38:19;-7.40;99.90
38973;DHT22;25333;50.762;4.470;2022-12-18T05:40:46;-7.40;99.90
38973;DHT22;25333;50.762;4.470;2022-12-18T05:43:12;-7.30;99.90
38973;DHT22;25333;50.762;4.470;2022-12-18T05:45:38;-7.30;99.90
38973;DHT22;25333;50.762;4.470;2022-12-18T05:48:04;-7.30;99.90
38973;DHT22;25333;50.762;4.470;2022-12-18T05:50:30;-7.30;99.90
38973;DHT22;25333;50.762;4.470;2022-12-18T05:52:56;-7.30;99.90
38973;DHT22;25333;50.762;4.470;2022-12-18T05:55:21;-7.30;99.90
38973;DHT22;25333;50.762;4.470;2022-12-18T05:57:47;-7.30;99.90
38973;DHT22;25333;50.762;4.470;2022-12-18T06:00:13;-7.50;99.90
38973;DHT22;25333;50.762;4.470;2022-12-18T06:02:38;-7.50;99.90
38973;DHT22;25333;50.762;4.470;2022-12-18T06:05:04;-7.40;99.90
38973;DHT22;25333;50.762;4.470;2022-12-18T06:07:30;-7.30;99.90
38973;DHT22;25333;50.762;4.470;2022-12-18T06:09:56;-7.40;99.90
38973;DHT22;25333;50.762;4.470;2022-12-18T06:12:21;-7.40;99.90
38973;DHT22;25333;50.762;4.470;2022-12-18T06:14:47;-7.40;99.90
38973;DHT22;25333;50.762;4.470;2022-12-18T06:17:12;-7.40;99.90
38973;DHT22;25333;50.762;4.470;2022-12-18T06:19:38;-7.30;99.90
38973;DHT22;25333;50.762;4.470;2022-12-18T06:22:03;-7.40;99.90
38973;DHT22;25333;50.762;4.470;2022-12-18T06:24:29;-7.40;99.90
38973;DHT22;25333;50.762;4.470;2022-12-18T06:26:55;-7.40;99.90
38973;DHT22;25333;50.762;4.470;2022-12-18T06:29:21;-7.30;99.90
38973;DHT22;25333;50.762;4.470;2022-12-18T06:31:46;-7.20;99.90
38973;DHT22;25333;50.762;4.470;2022-12-18T06:34:12;-7.20;99.90
38973;DHT22;25333;50.762;4.470;2022-12-18T06:36:38;-7.10;99.90
38973;DHT22;25333;50.762;4.470;2022-12-18T06:39:03;-7.20;99.90
38973;DHT22;25333;50.762;4.470;2022-12-18T06:41:29;-7.20;99.90
38973;DHT22;25333;50.762;4.470;2022-12-18T06:43:54;-7.10;99.90
38973;DHT22;25333;50.762;4.470;2022-12-18T06:46:20;-7.10;99.90
38973;DHT22;25333;50.762;4.470;2022-12-18T06:48:52;-7.00;99.90
38973;DHT22;25333;50.762;4.470;2022-12-18T06:51:19;-7.00;99.90
38973;DHT22;25333;50.762;4.470;2022-12-18T06:53:45;-7.00;99.90
38973;DHT22;25333;50.762;4.470;2022-12-18T06:56:11;-7.10;99.90
38973;DHT22;25333;50.762;4.470;2022-12-18T06:58:38;-7.10;99.90
38973;DHT22;25333;50.762;4.470;2022-12-18T07:01:06;-7.00;99.90
38973;DHT22;25333;50.762;4.470;2022-12-18T07:03:32;-7.10;99.90
38973;DHT22;25333;50.762;4.470;2022-12-18T07:05:58;-7.20;99.90
38973;DHT22;25333;50.762;4.470;2022-12-18T07:08:23;-7.20;99.90
38973;DHT22;25333;50.762;4.470;2022-12-18T07:10:49;-7.20;99.90
38973;DHT22;25333;50.762;4.470;2022-12-18T07:13:16;-7.10;99.90
38973;DHT22;25333;50.762;4.470;2022-12-18T07:15:42;-7.00;99.90
38973;DHT22;25333;50.762;4.470;2022-12-18T07:18:07;-7.10;99.90
38973;DHT22;25333;50.762;4.470;2022-12-18T07:20:33;-7.10;99.90
38973;DHT22;25333;50.762;4.470;2022-12-18T07:22:58;-7.10;99.90
38973;DHT22;25333;50.762;4.470;2022-12-18T07:25:26;-7.00;99.90
38973;DHT22;25333;50.762;4.470;2022-12-18T07:27:52;-7.00;99.90
38973;DHT22;25333;50.762;4.470;2022-12-18T07:30:18;-6.90;99.90
38973;DHT22;25333;50.762;4.470;2022-12-18T07:32:43;-7.00;99.90
38973;DHT22;25333;50.762;4.470;2022-12-18T07:35:09;-7.00;99.90
38973;DHT22;25333;50.762;4.470;2022-12-18T07:37:34;-7.00;99.90
38973;DHT22;25333;50.762;4.470;2022-12-18T07:40:00;-6.90;99.90
38973;DHT22;25333;50.762;4.470;2022-12-18T07:42:25;-6.90;99.90
38973;DHT22;25333;50.762;4.470;2022-12-18T07:44:58;-6.90;99.90
38973;DHT22;25333;50.762;4.470;2022-12-18T07:47:23;-6.90;99.90
38973;DHT22;25333;50.762;4.470;2022-12-18T07:49:49;-6.90;99.90
38973;DHT22;25333;50.762;4.470;2022-12-18T07:52:15;-6.90;99.90
38973;DHT22;25333;50.762;4.470;2022-12-18T07:54:40;-6.90;99.90
38973;DHT22;25333;50.762;4.470;2022-12-18T07:57:07;-7.00;99.90
38973;DHT22;25333;50.762;4.470;2022-12-18T07:59:32;-7.10;99.90
38973;DHT22;25333;50.762;4.470;2022-12-18T08:01:58;-7.10;99.90
38973;DHT22;25333;50.762;4.470;2022-12-18T08:04:24;-7.00;99.90
38973;DHT22;25333;50.762;4.470;2022-12-18T08:06:50;-7.00;99.90
38973;DHT22;25333;50.762;4.470;2022-12-18T08:09:16;-6.90;99.90
38973;DHT22;25333;50.762;4.470;2022-12-18T08:11:43;-6.80;99.90
38973;DHT22;25333;50.762;4.470;2022-12-18T08:14:09;-6.80;99.90
38973;DHT22;25333;50.762;4.470;2022-12-18T08:16:35;-6.90;99.90
38973;DHT22;25333;50.762;4.470;2022-12-18T08:19:01;-6.80;99.90
38973;DHT22;25333;50.762;4.470;2022-12-18T08:21:30;-6.70;99.90
38973;DHT22;25333;50.762;4.470;2022-12-18T08:23:58;-6.60;99.90
38973;DHT22;25333;50.762;4.470;2022-12-18T08:26:25;-6.60;99.90
38973;DHT22;25333;50.762;4.470;2022-12-18T08:28:53;-6.50;99.90
38973;DHT22;25333;50.762;4.470;2022-12-18T08:31:19;-6.50;99.90
38973;DHT22;25333;50.762;4.470;2022-12-18T08:33:51;-6.40;99.90
38973;DHT22;25333;50.762;4.470;2022-12-18T08:36:18;-6.30;99.90
38973;DHT22;25333;50.762;4.470;2022-12-18T08:38:44;-6.30;99.90
38973;DHT22;25333;50.762;4.470;2022-12-18T08:41:12;-6.20;99.90
38973;DHT22;25333;50.762;4.470;2022-12-18T08:43:37;-6.10;99.90
38973;DHT22;25333;50.762;4.470;2022-12-18T08:46:23;-5.90;99.90
38973;DHT22;25333;50.762;4.470;2022-12-18T08:48:54;-5.80;99.90
38973;DHT22;25333;50.762;4.470;2022-12-18T08:51:20;-5.70;99.90
38973;DHT22;25333;50.762;4.470;2022-12-18T08:53:46;-5.60;99.90
38973;DHT22;25333;50.762;4.470;2022-12-18T08:56:12;-5.50;99.90
38973;DHT22;25333;50.762;4.470;2022-12-18T08:58:38;-5.40;99.90
38973;DHT22;25333;50.762;4.470;2022-12-18T09:01:06;-5.30;99.90
38973;DHT22;25333;50.762;4.470;2022-12-18T09:03:33;-5.20;99.90
38973;DHT22;25333;50.762;4.470;2022-12-18T09:05:59;-5.10;99.90
38973;DHT22;25333;50.762;4.470;2022-12-18T09:08:25;-5.00;99.90
38973;DHT22;25333;50.762;4.470;2022-12-18T09:10:51;-4.90;99.90
38973;DHT22;25333;50.762;4.470;2022-12-18T09:13:18;-4.90;99.90
38973;DHT22;25333;50.762;4.470;2022-12-18T09:15:46;-4.80;99.90
38973;DHT22;25333;50.762;4.470;2022-12-18T09:18:14;-4.60;99.90
38973;DHT22;25333;50.762;4.470;2022-12-18T09:20:40;-4.60;99.90
38973;DHT22;25333;50.762;4.470;2022-12-18T09:23:06;-4.50;99.90
38973;DHT22;25333;50.762;4.470;2022-12-18T09:25:33;-4.40;99.90
38973;DHT22;25333;50.762;4.470;2022-12-18T09:28:05;-4.30;99.90
38973;DHT22;25333;50.762;4.470;2022-12-18T09:30:31;-4.10;99.90
38973;DHT22;25333;50.762;4.470;2022-12-18T09:32:58;-4.00;99.90
38973;DHT22;25333;50.762;4.470;2022-12-18T09:35:24;-4.00;99.90
38973;DHT22;25333;50.762;4.470;2022-12-18T09:37:50;-3.90;99.90
38973;DHT22;25333;50.762;4.470;2022-12-18T09:40:22;-3.80;99.90
38973;DHT22;25333;50.762;4.470;2022-12-18T09:42:54;-3.70;99.90
38973;DHT22;25333;50.762;4.470;2022-12-18T09:45:21;-3.70;99.90
38973;DHT22;25333;50.762;4.470;2022-12-18T09:47:48;-3.60;99.90
38973;DHT22;25333;50.762;4.470;2022-12-18T09:50:29;-3.50;99.90
38973;DHT22;25333;50.762;4.470;2022-12-18T09:52:58;-3.40;99.90
38973;DHT22;25333;50.762;4.470;2022-12-18T09:55:41;-3.40;99.90
38973;DHT22;25333;50.762;4.470;2022-12-18T10:00:58;-3.10;99.90
38973;DHT22;25333;50.762;4.470;2022-12-18T10:03:24;-3.00;99.90
38973;DHT22;25333;50.762;4.470;2022-12-18T10:06:11;-3.00;99.90
38973;DHT22;25333;50.762;4.470;2022-12-18T10:09:19;-3.00;99.90
38973;DHT22;25333;50.762;4.470;2022-12-18T10:12:12;-3.00;99.90
38973;DHT22;25333;50.762;4.470;2022-12-18T10:14:49;-2.90;99.90
38973;DHT22;25333;50.762;4.470;2022-12-18T10:20:10;-2.70;99.90
38973;DHT22;25333;50.762;4.470;2022-12-18T10:25:32;-2.50;99.90
38973;DHT22;25333;50.762;4.470;2022-12-18T10:28:10;-2.40;99.90
38973;DHT22;25333;50.762;4.470;2022-12-18T10:30:39;-2.30;99.90
38973;DHT22;25333;50.762;4.470;2022-12-18T10:33:05;-2.30;99.90
38973;DHT22;25333;50.762;4.470;2022-12-18T10:35:31;-2.10;99.90
38973;DHT22;25333;50.762;4.470;2022-12-18T10:38:23;-2.10;99.90
38973;DHT22;25333;50.762;4.470;2022-12-18T10:40:55;-1.90;99.90
38973;DHT22;25333;50.762;4.470;2022-12-18T10:43:27;-1.80;99.90
38973;DHT22;25333;50.762;4.470;2022-12-18T10:46:02;-1.70;99.90
38973;DHT22;25333;50.762;4.470;2022-12-18T10:48:28;-1.70;99.90
38973;DHT22;25333;50.762;4.470;2022-12-18T10:50:55;-1.60;99.90
38973;DHT22;25333;50.762;4.470;2022-12-18T10:53:24;-1.60;99.90
38973;DHT22;25333;50.762;4.470;2022-12-18T10:55:52;-1.50;99.90
38973;DHT22;25333;50.762;4.470;2022-12-18T10:58:31;-1.40;99.90
38973;DHT22;25333;50.762;4.470;2022-12-18T11:01:17;-1.30;99.90
38973;DHT22;25333;50.762;4.470;2022-12-18T11:06:23;-1.20;99.90
38973;DHT22;25333;50.762;4.470;2022-12-18T11:09:00;-1.10;99.90
38973;DHT22;25333;50.762;4.470;2022-12-18T11:11:26;-1.00;99.90
38973;DHT22;25333;50.762;4.470;2022-12-18T11:14:02;-1.00;99.90
38973;DHT22;25333;50.762;4.470;2022-12-18T11:16:30;-0.90;99.90
38973;DHT22;25333;50.762;4.470;2022-12-18T11:19:17;-0.90;99.90
38973;DHT22;25333;50.762;4.470;2022-12-18T11:21:45;-0.80;99.90
38973;DHT22;25333;50.762;4.470;2022-12-18T11:24:33;-0.80;99.90
38973;DHT22;25333;50.762;4.470;2022-12-18T11:27:02;-0.70;99.90
38973;DHT22;25333;50.762;4.470;2022-12-18T11:29:39;-0.70;99.90
38973;DHT22;25333;50.762;4.470;2022-12-18T11:35:11;-0.50;99.90
38973;DHT22;25333;50.762;4.470;2022-12-18T11:37:41;-0.50;99.90
38973;DHT22;25333;50.762;4.470;2022-12-18T11:40:38;-0.50;99.90
38973;DHT22;25333;50.762;4.470;2022-12-18T11:43:15;-0.50;99.90
38973;DHT22;25333;50.762;4.470;2022-12-18T11:45:54;-0.50;99.90
38973;DHT22;25333;50.762;4.470;2022-12-18T11:48:27;-0.40;99.90
38973;DHT22;25333;50.762;4.470;2022-12-18T11:50:55;-0.40;99.90
38973;DHT22;25333;50.762;4.470;2022-12-18T11:53:22;-0.40;99.90
38973;DHT22;25333;50.762;4.470;2022-12-18T12:04:45;-0.30;99.90
38973;DHT22;25333;50.762;4.470;2022-12-18T12:10:35;-0.20;99.90
38973;DHT22;25333;50.762;4.470;2022-12-18T12:13:37;-0.10;99.90
38973;DHT22;25333;50.762;4.470;2022-12-18T12:16:17;-0.10;99.90
38973;DHT22;25333;50.762;4.470;2022-12-18T12:18:51;-0.10;99.90
38973;DHT22;25333;50.762;4.470;2022-12-18T12:21:28;-0.10;99.90
38973;DHT22;25333;50.762;4.470;2022-12-18T12:26:52;0.00;99.90
38973;DHT22;25333;50.762;4.470;2022-12-18T12:40:20;0.20;99.90
38973;DHT22;25333;50.762;4.470;2022-12-18T12:43:04;0.20;99.90
38973;DHT22;25333;50.762;4.470;2022-12-18T12:48:47;0.30;99.90
38973;DHT22;25333;50.762;4.470;2022-12-18T12:51:24;0.20;99.90
38973;DHT22;25333;50.762;4.470;2022-12-18T12:53:50;0.30;99.90
38973;DHT22;25333;50.762;4.470;2022-12-18T12:56:19;0.20;99.90
38973;DHT22;25333;50.762;4.470;2022-12-18T13:02:06;0.30;99.90
38973;DHT22;25333;50.762;4.470;2022-12-18T13:04:44;0.30;99.90
38973;DHT22;25333;50.762;4.470;2022-12-18T13:07:20;0.30;99.90
38973;DHT22;25333;50.762;4.470;2022-12-18T13:15:34;0.30;99.90
38973;DHT22;25333;50.762;4.470;2022-12-18T13:20:44;0.40;99.90
38973;DHT22;25333;50.762;4.470;2022-12-18T13:31:02;0.40;99.70
38973;DHT22;25333;50.762;4.470;2022-12-18T13:36:04;0.40;99.90
38973;DHT22;25333;50.762;4.470;2022-12-18T13:38:35;0.40;99.90
38973;DHT22;25333;50.762;4.470;2022-12-18T13:43:39;0.40;99.90
38973;DHT22;25333;50.762;4.470;2022-12-18T13:46:30;0.40;99.90
38973;DHT22;25333;50.762;4.470;2022-12-18T13:49:36;0.50;99.90
38973;DHT22;25333;50.762;4.470;2022-12-18T13:52:14;0.50;99.80
38973;DHT22;25333;50.762;4.470;2022-12-18T13:54:42;0.50;99.80
38973;DHT22;25333;50.762;4.470;2022-12-18T13:57:33;0.50;99.80
38973;DHT22;25333;50.762;4.470;2022-12-18T14:02:46;0.50;99.90
38973;DHT22;25333;50.762;4.470;2022-12-18T14:05:32;0.40;99.80
38973;DHT22;25333;50.762;4.470;2022-12-18T14:08:08;0.40;99.90
38973;DHT22;25333;50.762;4.470;2022-12-18T14:10:39;0.40;99.90
38973;DHT22;25333;50.762;4.470;2022-12-18T14:13:07;0.40;99.90
38973;DHT22;25333;50.762;4.470;2022-12-18T14:15:41;0.50;99.90
38973;DHT22;25333;50.762;4.470;2022-12-18T14:20:43;0.50;99.90
38973;DHT22;25333;50.762;4.470;2022-12-18T14:23:29;0.50;99.90
38973;DHT22;25333;50.762;4.470;2022-12-18T14:25:55;0.50;99.90
38973;DHT22;25333;50.762;4.470;2022-12-18T14:28:20;0.50;99.90
38973;DHT22;25333;50.762;4.470;2022-12-18T14:30:49;0.40;99.90
38973;DHT22;25333;50.762;4.470;2022-12-18T14:33:16;0.40;99.90
38973;DHT22;25333;50.762;4.470;2022-12-18T14:36:01;0.50;99.90
38973;DHT22;25333;50.762;4.470;2022-12-18T14:38:33;0.50;99.90
38973;DHT22;25333;50.762;4.470;2022-12-18T14:43:36;0.50;99.90
38973;DHT22;25333;50.762;4.470;2022-12-18T14:46:04;0.40;99.80
38973;DHT22;25333;50.762;4.470;2022-12-18T14:51:12;0.50;99.60
38973;DHT22;25333;50.762;4.470;2022-12-18T14:53:43;0.50;99.60
38973;DHT22;25333;50.762;4.470;2022-12-18T14:56:16;0.50;99.80
38973;DHT22;25333;50.762;4.470;2022-12-18T14:58:47;0.50;99.50
38973;DHT22;25333;50.762;4.470;2022-12-18T15:01:31;0.50;99.60
38973;DHT22;25333;50.762;4.470;2022-12-18T15:03:59;0.50;99.60
38973;DHT22;25333;50.762;4.470;2022-12-18T15:06:31;0.50;99.60
38973;DHT22;25333;50.762;4.470;2022-12-18T15:08:59;0.50;99.50
38973;DHT22;25333;50.762;4.470;2022-12-18T15:11:32;0.50;99.10
38973;DHT22;25333;50.762;4.470;2022-12-18T15:13:58;0.60;98.90
38973;DHT22;25333;50.762;4.470;2022-12-18T15:16:24;0.60;99.00
38973;DHT22;25333;50.762;4.470;2022-12-18T15:18:50;0.60;99.00
38973;DHT22;25333;50.762;4.470;2022-12-18T15:21:18;0.60;99.10
38973;DHT22;25333;50.762;4.470;2022-12-18T15:26:12;0.50;99.10
38973;DHT22;25333;50.762;4.470;2022-12-18T15:28:45;0.60;98.70
38973;DHT22;25333;50.762;4.470;2022-12-18T15:36:24;0.60;98.60
38973;DHT22;25333;50.762;4.470;2022-12-18T15:38:55;0.70;98.30
38973;DHT22;25333;50.762;4.470;2022-12-18T15:41:22;0.70;98.20
38973;DHT22;25333;50.762;4.470;2022-12-18T15:43:49;0.70;98.10
38973;DHT22;25333;50.762;4.470;2022-12-18T15:46:18;0.60;98.20
38973;DHT22;25333;50.762;4.470;2022-12-18T15:48:46;0.60;98.50
38973;DHT22;25333;50.762;4.470;2022-12-18T15:51:16;0.60;98.30
38973;DHT22;25333;50.762;4.470;2022-12-18T15:53:42;0.70;98.50
38973;DHT22;25333;50.762;4.470;2022-12-18T15:56:12;0.70;97.90
38973;DHT22;25333;50.762;4.470;2022-12-18T15:58:56;0.70;98.10
38973;DHT22;25333;50.762;4.470;2022-12-18T16:01:30;0.80;98.30
38973;DHT22;25333;50.762;4.470;2022-12-18T16:03:57;0.80;98.30
38973;DHT22;25333;50.762;4.470;2022-12-18T16:06:23;0.80;98.30
38973;DHT22;25333;50.762;4.470;2022-12-18T16:08:49;0.70;98.60
38973;DHT22;25333;50.762;4.470;2022-12-18T16:11:28;0.80;98.30
38973;DHT22;25333;50.762;4.470;2022-12-18T16:14:05;0.80;98.40
38973;DHT22;25333;50.762;4.470;2022-12-18T16:16:31;0.90;98.30
38973;DHT22;25333;50.762;4.470;2022-12-18T16:18:57;0.80;98.30
38973;DHT22;25333;50.762;4.470;2022-12-18T16:21:22;0.80;98.60
38973;DHT22;25333;50.762;4.470;2022-12-18T16:23:48;0.90;98.30
38973;DHT22;25333;50.762;4.470;2022-12-18T16:26:14;0.80;98.40
38973;DHT22;25333;50.762;4.470;2022-12-18T16:28:39;0.80;98.30
38973;DHT22;25333;50.762;4.470;2022-12-18T16:31:05;0.90;98.30
38973;DHT22;25333;50.762;4.470;2022-12-18T16:33:30;0.80;98.40
38973;DHT22;25333;50.762;4.470;2022-12-18T16:35:56;0.80;98.30
38973;DHT22;25333;50.762;4.470;2022-12-18T16:38:22;0.80;98.20
38973;DHT22;25333;50.762;4.470;2022-12-18T16:40:47;0.80;98.30
38973;DHT22;25333;50.762;4.470;2022-12-18T16:43:31;0.80;98.30
38973;DHT22;25333;50.762;4.470;2022-12-18T16:45:58;0.80;98.20
38973;DHT22;25333;50.762;4.470;2022-12-18T16:48:24;0.80;98.10
38973;DHT22;25333;50.762;4.470;2022-12-18T16:50:50;0.80;98.00
38973;DHT22;25333;50.762;4.470;2022-12-18T16:53:20;0.90;98.00
38973;DHT22;25333;50.762;4.470;2022-12-18T16:55:54;0.80;97.90
38973;DHT22;25333;50.762;4.470;2022-12-18T16:58:20;0.80;98.10
38973;DHT22;25333;50.762;4.470;2022-12-18T17:00:45;0.80;98.10
38973;DHT22;25333;50.762;4.470;2022-12-18T17:03:11;0.90;97.90
38973;DHT22;25333;50.762;4.470;2022-12-18T17:05:36;0.90;97.80
38973;DHT22;25333;50.762;4.470;2022-12-18T17:08:02;0.90;97.70
38973;DHT22;25333;50.762;4.470;2022-12-18T17:10:27;0.90;97.60
38973;DHT22;25333;50.762;4.470;2022-12-18T17:12:53;0.90;97.70
38973;DHT22;25333;50.762;4.470;2022-12-18T17:15:18;0.90;97.70
38973;DHT22;25333;50.762;4.470;2022-12-18T17:17:44;0.90;97.70
38973;DHT22;25333;50.762;4.470;2022-12-18T17:20:10;1.00;97.90
38973;DHT22;25333;50.762;4.470;2022-12-18T17:22:36;0.90;98.10
38973;DHT22;25333;50.762;4.470;2022-12-18T17:25:01;0.90;98.10
38973;DHT22;25333;50.762;4.470;2022-12-18T17:27:27;0.90;98.40
38973;DHT22;25333;50.762;4.470;2022-12-18T17:29:53;0.90;98.50
38973;DHT22;25333;50.762;4.470;2022-12-18T17:32:18;0.90;98.70
38973;DHT22;25333;50.762;4.470;2022-12-18T17:34:44;0.90;99.00
38973;DHT22;25333;50.762;4.470;2022-12-18T17:37:10;1.00;99.10
38973;DHT22;25333;50.762;4.470;2022-12-18T17:39:36;0.90;99.20
38973;DHT22;25333;50.762;4.470;2022-12-18T17:42:01;1.00;99.50
38973;DHT22;25333;50.762;4.470;2022-12-18T17:44:28;1.00;99.50
38973;DHT22;25333;50.762;4.470;2022-12-18T17:46:54;0.90;99.80
38973;DHT22;25333;50.762;4.470;2022-12-18T17:49:19;1.00;99.90